sensor_id;sensor_type;location;lat;lon;timestamp;temperature;humidity
51837;DHT22;38941;53.254;6.600;2024-02-28T00:01:53;2.80;99.90
51837;DHT22;38941;53.254;6.600;2024-02-28T00:03:54;3.60;99.90
51837;DHT22;38941;53.254;6.600;2024-02-28T00:05:55;2.30;99.90
51837;DHT22;38941;53.254;6.600;2024-02-28T00:07:57;2.30;99.90
51837;DHT22;38941;53.254;6.600;2024-02-28T00:09:59;2.30;99.90
51837;DHT22;38941;53.254;6.600;2024-02-28T00:12:01;2.40;99.90
51837;DHT22;38941;53.254;6.600;2024-02-28T00:14:08;2.30;99.90
51837;DHT22;38941;53.254;6.600;2024-02-28T00:16:09;2.30;99.90
51837;DHT22;38941;53.254;6.600;2024-02-28T00:18:11;2.30;99.90
51837;DHT22;38941;53.254;6.600;2024-02-28T00:20:14;2.30;99.90
51837;DHT22;38941;53.254;6.600;2024-02-28T00:22:19;2.30;99.90
51837;DHT22;38941;53.254;6.600;2024-02-28T00:24:20;3.50;99.90
51837;DHT22;38941;53.254;6.600;2024-02-28T00:26:20;1.60;99.90
51837;DHT22;38941;53.254;6.600;2024-02-28T00:28:22;2.70;99.90
51837;DHT22;38941;53.254;6.600;2024-02-28T00:30:33;3.70;99.90
51837;DHT22;38941;53.254;6.600;2024-02-28T00:32:40;2.40;99.90
51837;DHT22;38941;53.254;6.600;2024-02-28T00:34:41;3.10;99.90
51837;DHT22;38941;53.254;6.600;2024-02-28T00:36:42;3.20;99.90
51837;DHT22;38941;53.254;6.600;2024-02-28T00:38:42;2.40;99.90
51837;DHT22;38941;53.254;6.600;2024-02-28T00:40:49;2.40;99.90
51837;DHT22;38941;53.254;6.600;2024-02-28T00:42:51;3.70;99.90
51837;DHT22;38941;53.254;6.600;2024-02-28T00:44:53;3.40;99.90
51837;DHT22;38941;53.254;6.600;2024-02-28T00:46:55;1.60;99.90
51837;DHT22;38941;53.254;6.600;2024-02-28T00:48:58;3.60;99.90
51837;DHT22;38941;53.254;6.600;2024-02-28T00:50:58;2.50;99.90
51837;DHT22;38941;53.254;6.600;2024-02-28T00:53:05;3.50;99.90
51837;DHT22;38941;53.254;6.600;2024-02-28T00:55:08;3.00;99.90
51837;DHT22;38941;53.254;6.600;2024-02-28T00:57:09;3.60;99.90
51837;DHT22;38941;53.254;6.600;2024-02-28T00:59:10;3.80;99.90
51837;DHT22;38941;53.254;6.600;2024-02-28T01:01:13;2.20;99.90
51837;DHT22;38941;53.254;6.600;2024-02-28T01:03:20;3.80;99.90
51837;DHT22;38941;53.254;6.600;2024-02-28T01:05:21;3.60;99.90
51837;DHT22;38941;53.254;6.600;2024-02-28T01:07:23;3.60;99.90
51837;DHT22;38941;53.254;6.600;2024-02-28T01:09:26;1.80;99.90
51837;DHT22;38941;53.254;6.600;2024-02-28T01:11:29;3.60;99.90
51837;DHT22;38941;53.254;6.600;2024-02-28T01:13:30;3.40;99.90
51837;DHT22;38941;53.254;6.600;2024-02-28T01:15:33;3.30;99.90
51837;DHT22;38941;53.254;6.600;2024-02-28T01:17:34;3.60;99.90
51837;DHT22;38941;53.254;6.600;2024-02-28T01:19:35;2.80;99.90
51837;DHT22;38941;53.254;6.600;2024-02-28T01:21:36;1.90;99.90
51837;DHT22;38941;53.254;6.600;2024-02-28T01:23:36;3.40;99.90
51837;DHT22;38941;53.254;6.600;2024-02-28T01:25:39;3.50;99.90
51837;DHT22;38941;53.254;6.600;2024-02-28T01:27:40;3.30;99.90
51837;DHT22;38941;53.254;6.600;2024-02-28T01:29:42;3.60;99.90
51837;DHT22;38941;53.254;6.600;2024-02-28T01:31:45;3.60;99.90
51837;DHT22;38941;53.254;6.600;2024-02-28T01:33:47;2.30;99.90
51837;DHT22;38941;53.254;6.600;2024-02-28T01:35:49;3.50;99.90
51837;DHT22;38941;53.254;6.600;2024-02-28T01:37:50;2.90;99.90
51837;DHT22;38941;53.254;6.600;2024-02-28T01:39:57;2.20;99.90
51837;DHT22;38941;53.254;6.600;2024-02-28T01:41:58;3.00;99.90
51837;DHT22;38941;53.254;6.600;2024-02-28T01:44:05;2.80;99.90
51837;DHT22;38941;53.254;6.600;2024-02-28T01:46:26;2.80;99.90
51837;DHT22;38941;53.254;6.600;2024-02-28T01:48:27;2.40;99.90
51837;DHT22;38941;53.254;6.600;2024-02-28T01:50:28;1.50;99.90
51837;DHT22;38941;53.254;6.600;2024-02-28T01:52:30;3.60;99.90
51837;DHT22;38941;53.254;6.600;2024-02-28T01:54:38;3.60;99.90
51837;DHT22;38941;53.254;6.600;2024-02-28T01:56:40;2.90;99.90
51837;DHT22;38941;53.254;6.600;2024-02-28T01:58:42;2.30;99.90
51837;DHT22;38941;53.254;6.600;2024-02-28T02:00:49;3.70;99.90
51837;DHT22;38941;53.254;6.600;2024-02-28T02:02:50;3.60;99.90
51837;DHT22;38941;53.254;6.600;2024-02-28T02:04:56;3.10;99.90
51837;DHT22;38941;53.254;6.600;2024-02-28T02:07:00;3.50;99.90
51837;DHT22;38941;53.254;6.600;2024-02-28T02:09:09;3.20;99.90
51837;DHT22;38941;53.254;6.600;2024-02-28T02:11:14;3.80;99.90
51837;DHT22;38941;53.254;6.600;2024-02-28T02:13:16;3.60;99.90
51837;DHT22;38941;53.254;6.600;2024-02-28T02:15:18;3.60;99.90
51837;DHT22;38941;53.254;6.600;2024-02-28T02:17:20;3.40;99.90
51837;DHT22;38941;53.254;6.600;2024-02-28T02:19:23;2.40;99.90
51837;DHT22;38941;53.254;6.600;2024-02-28T02:21:26;2.60;99.90
51837;DHT22;38941;53.254;6.600;2024-02-28T02:23:30;2.50;99.90
51837;DHT22;38941;53.254;6.600;2024-02-28T02:25:32;2.40;99.90
51837;DHT22;38941;53.254;6.600;2024-02-28T02:27:35;3.70;99.90
51837;DHT22;38941;53.254;6.600;2024-02-28T02:29:36;2.40;99.90
51837;DHT22;38941;53.254;6.600;2024-02-28T02:31:42;3.10;99.90
51837;DHT22;38941;53.254;6.600;2024-02-28T02:33:49;2.70;99.90
51837;DHT22;38941;53.254;6.600;2024-02-28T02:35:53;2.40;99.90
51837;DHT22;38941;53.254;6.600;2024-02-28T02:37:55;3.00;99.90
51837;DHT22;38941;53.254;6.600;2024-02-28T02:39:57;3.00;99.90
51837;DHT22;38941;53.254;6.600;2024-02-28T02:41:59;3.70;99.90
51837;DHT22;38941;53.254;6.600;2024-02-28T02:44:02;3.40;99.90
51837;DHT22;38941;53.254;6.600;2024-02-28T02:46:03;2.60;99.90
51837;DHT22;38941;53.254;6.600;2024-02-28T02:48:04;2.40;99.90
51837;DHT22;38941;53.254;6.600;2024-02-28T02:50:06;2.30;99.90
51837;DHT22;38941;53.254;6.600;2024-02-28T02:52:08;2.30;99.90
51837;DHT22;38941;53.254;6.600;2024-02-28T02:54:16;3.00;99.90
51837;DHT22;38941;53.254;6.600;2024-02-28T02:56:18;3.70;99.90
51837;DHT22;38941;53.254;6.600;2024-02-28T02:58:19;3.40;99.90
51837;DHT22;38941;53.254;6.600;2024-02-28T03:00:21;2.70;99.90
51837;DHT22;38941;53.254;6.600;2024-02-28T03:02:27;1.40;99.90
51837;DHT22;38941;53.254;6.600;2024-02-28T03:04:30;3.40;99.90
51837;DHT22;38941;53.254;6.600;2024-02-28T03:06:31;2.40;99.90
51837;DHT22;38941;53.254;6.600;2024-02-28T03:08:32;2.40;99.90
51837;DHT22;38941;53.254;6.600;2024-02-28T03:10:35;2.30;99.90
51837;DHT22;38941;53.254;6.600;2024-02-28T03:12:37;3.30;99.90
51837;DHT22;38941;53.254;6.600;2024-02-28T03:14:39;2.90;99.90
51837;DHT22;38941;53.254;6.600;2024-02-28T03:16:44;2.90;99.90
51837;DHT22;38941;53.254;6.600;2024-02-28T03:18:45;3.70;99.90
51837;DHT22;38941;53.254;6.600;2024-02-28T03:20:52;3.40;99.90
51837;DHT22;38941;53.254;6.600;2024-02-28T03:22:59;2.30;99.90
51837;DHT22;38941;53.254;6.600;2024-02-28T03:25:02;3.60;99.90
51837;DHT22;38941;53.254;6.600;2024-02-28T03:27:03;2.30;99.90
51837;DHT22;38941;53.254;6.600;2024-02-28T03:29:04;2.30;99.90
51837;DHT22;38941;53.254;6.600;2024-02-28T03:31:07;2.80;99.90
51837;DHT22;38941;53.254;6.600;2024-02-28T03:33:09;3.10;99.90
51837;DHT22;38941;53.254;6.600;2024-02-28T03:35:11;3.50;99.90
51837;DHT22;38941;53.254;6.600;2024-02-28T03:37:22;2.50;99.90
51837;DHT22;38941;53.254;6.600;2024-02-28T03:39:23;2.30;99.90
51837;DHT22;38941;53.254;6.600;2024-02-28T03:41:25;2.30;99.90
51837;DHT22;38941;53.254;6.600;2024-02-28T03:43:26;2.30;99.90
51837;DHT22;38941;53.254;6.600;2024-02-28T03:45:37;3.60;99.90
51837;DHT22;38941;53.254;6.600;2024-02-28T03:47:58;2.30;99.90
51837;DHT22;38941;53.254;6.600;2024-02-28T03:49:58;2.30;99.90
51837;DHT22;38941;53.254;6.600;2024-02-28T03:52:00;3.20;99.90
51837;DHT22;38941;53.254;6.600;2024-02-28T03:54:01;3.60;99.90
51837;DHT22;38941;53.254;6.600;2024-02-28T03:56:04;3.30;99.90
51837;DHT22;38941;53.254;6.600;2024-02-28T03:58:12;2.40;99.90
51837;DHT22;38941;53.254;6.600;2024-02-28T04:00:15;3.70;99.90
51837;DHT22;38941;53.254;6.600;2024-02-28T04:02:18;2.40;99.90
51837;DHT22;38941;53.254;6.600;2024-02-28T04:04:19;3.80;99.90
51837;DHT22;38941;53.254;6.600;2024-02-28T04:06:21;2.60;99.90
51837;DHT22;38941;53.254;6.600;2024-02-28T04:08:22;3.30;99.90
51837;DHT22;38941;53.254;6.600;2024-02-28T04:10:24;2.50;99.90
51837;DHT22;38941;53.254;6.600;2024-02-28T04:12:27;2.50;99.90
51837;DHT22;38941;53.254;6.600;2024-02-28T04:14:36;2.40;99.90
51837;DHT22;38941;53.254;6.600;2024-02-28T04:16:47;3.00;99.90
51837;DHT22;38941;53.254;6.600;2024-02-28T04:18:50;3.70;99.90
51837;DHT22;38941;53.254;6.600;2024-02-28T04:20:52;2.60;99.90
51837;DHT22;38941;53.254;6.600;2024-02-28T04:22:54;2.60;99.90
51837;DHT22;38941;53.254;6.600;2024-02-28T04:24:58;2.70;99.90
51837;DHT22;38941;53.254;6.600;2024-02-28T04:26:58;3.50;99.90
51837;DHT22;38941;53.254;6.600;2024-02-28T04:29:02;3.30;99.90
51837;DHT22;38941;53.254;6.600;2024-02-28T04:31:08;2.80;99.90
51837;DHT22;38941;53.254;6.600;2024-02-28T04:33:17;4.00;99.90
51837;DHT22;38941;53.254;6.600;2024-02-28T04:35:26;4.00;99.90
51837;DHT22;38941;53.254;6.600;2024-02-28T04:37:29;4.10;99.90
51837;DHT22;38941;53.254;6.600;2024-02-28T04:39:31;2.90;99.90
51837;DHT22;38941;53.254;6.600;2024-02-28T04:41:33;2.80;99.90
51837;DHT22;38941;53.254;6.600;2024-02-28T04:43:34;1.90;99.90
51837;DHT22;38941;53.254;6.600;2024-02-28T04:45:38;3.60;99.90
51837;DHT22;38941;53.254;6.600;2024-02-28T04:47:47;3.40;99.90
51837;DHT22;38941;53.254;6.600;2024-02-28T04:49:47;3.60;99.90
51837;DHT22;38941;53.254;6.600;2024-02-28T04:51:50;4.30;99.90
51837;DHT22;38941;53.254;6.600;2024-02-28T04:53:52;3.80;99.90
51837;DHT22;38941;53.254;6.600;2024-02-28T04:55:54;3.00;99.90
51837;DHT22;38941;53.254;6.600;2024-02-28T04:57:54;3.30;99.90
51837;DHT22;38941;53.254;6.600;2024-02-28T04:59:55;3.00;99.90
51837;DHT22;38941;53.254;6.600;2024-02-28T05:01:57;3.80;99.90
51837;DHT22;38941;53.254;6.600;2024-02-28T05:03:58;3.00;99.90
51837;DHT22;38941;53.254;6.600;2024-02-28T05:06:00;4.20;99.90
51837;DHT22;38941;53.254;6.600;2024-02-28T05:08:02;3.10;99.90
51837;DHT22;38941;53.254;6.600;2024-02-28T05:10:05;3.10;99.90
51837;DHT22;38941;53.254;6.600;2024-02-28T05:12:06;3.10;99.90
51837;DHT22;38941;53.254;6.600;2024-02-28T05:14:08;3.10;99.90
51837;DHT22;38941;53.254;6.600;2024-02-28T05:16:13;3.50;99.90
51837;DHT22;38941;53.254;6.600;2024-02-28T05:18:15;3.80;99.90
51837;DHT22;38941;53.254;6.600;2024-02-28T05:20:16;3.10;99.90
51837;DHT22;38941;53.254;6.600;2024-02-28T05:22:17;3.10;99.90
51837;DHT22;38941;53.254;6.600;2024-02-28T05:24:18;4.40;99.90
51837;DHT22;38941;53.254;6.600;2024-02-28T05:26:24;3.10;99.90
51837;DHT22;38941;53.254;6.600;2024-02-28T05:28:33;2.10;99.90
51837;DHT22;38941;53.254;6.600;2024-02-28T05:30:39;4.00;99.90
51837;DHT22;38941;53.254;6.600;2024-02-28T05:32:41;4.10;99.90
51837;DHT22;38941;53.254;6.600;2024-02-28T05:34:43;3.20;99.90
51837;DHT22;38941;53.254;6.600;2024-02-28T05:36:45;3.60;99.90
51837;DHT22;38941;53.254;6.600;2024-02-28T05:38:46;4.00;99.90
51837;DHT22;38941;53.254;6.600;2024-02-28T05:40:47;3.20;99.90
51837;DHT22;38941;53.254;6.600;2024-02-28T05:42:48;3.20;99.90
51837;DHT22;38941;53.254;6.600;2024-02-28T05:44:52;2.90;99.90
51837;DHT22;38941;53.254;6.600;2024-02-28T05:46:54;2.60;99.90
51837;DHT22;38941;53.254;6.600;2024-02-28T05:48:54;3.30;99.90
51837;DHT22;38941;53.254;6.600;2024-02-28T05:50:55;4.20;99.90
51837;DHT22;38941;53.254;6.600;2024-02-28T05:52:57;3.30;99.90
51837;DHT22;38941;53.254;6.600;2024-02-28T05:54:58;3.80;99.90
51837;DHT22;38941;53.254;6.600;2024-02-28T05:56:58;4.40;99.90
51837;DHT22;38941;53.254;6.600;2024-02-28T05:59:00;4.50;99.90
51837;DHT22;38941;53.254;6.600;2024-02-28T06:01:01;4.50;99.90
51837;DHT22;38941;53.254;6.600;2024-02-28T06:03:02;3.40;99.90
51837;DHT22;38941;53.254;6.600;2024-02-28T06:05:03;3.40;99.90
51837;DHT22;38941;53.254;6.600;2024-02-28T06:07:04;3.40;99.90
51837;DHT22;38941;53.254;6.600;2024-02-28T06:09:06;4.20;99.90
51837;DHT22;38941;53.254;6.600;2024-02-28T06:11:08;4.60;99.90
51837;DHT22;38941;53.254;6.600;2024-02-28T06:13:09;4.40;99.90
51837;DHT22;38941;53.254;6.600;2024-02-28T06:15:09;4.20;99.90
51837;DHT22;38941;53.254;6.600;2024-02-28T06:17:12;3.40;99.90
51837;DHT22;38941;53.254;6.600;2024-02-28T06:19:15;3.50;99.90
51837;DHT22;38941;53.254;6.600;2024-02-28T06:21:17;2.60;99.90
51837;DHT22;38941;53.254;6.600;2024-02-28T06:23:18;3.60;99.90
51837;DHT22;38941;53.254;6.600;2024-02-28T06:25:20;4.60;99.90
51837;DHT22;38941;53.254;6.600;2024-02-28T06:27:24;3.80;99.90
51837;DHT22;38941;53.254;6.600;2024-02-28T06:29:28;4.00;99.90
51837;DHT22;38941;53.254;6.600;2024-02-28T06:31:31;4.70;99.90
51837;DHT22;38941;53.254;6.600;2024-02-28T06:33:32;3.40;99.90
51837;DHT22;38941;53.254;6.600;2024-02-28T06:35:34;3.50;99.90
51837;DHT22;38941;53.254;6.600;2024-02-28T06:37:36;4.60;99.90
51837;DHT22;38941;53.254;6.600;2024-02-28T06:39:38;3.60;99.90
51837;DHT22;38941;53.254;6.600;2024-02-28T06:41:40;3.50;99.90
51837;DHT22;38941;53.254;6.600;2024-02-28T06:43:41;4.20;99.90
51837;DHT22;38941;53.254;6.600;2024-02-28T06:45:42;4.40;99.90
51837;DHT22;38941;53.254;6.600;2024-02-28T06:47:43;3.50;99.90
51837;DHT22;38941;53.254;6.600;2024-02-28T06:49:45;4.70;99.90
51837;DHT22;38941;53.254;6.600;2024-02-28T06:51:51;4.30;99.90
51837;DHT22;38941;53.254;6.600;2024-02-28T06:53:54;4.50;99.90
51837;DHT22;38941;53.254;6.600;2024-02-28T06:55:56;4.20;99.90
51837;DHT22;38941;53.254;6.600;2024-02-28T06:57:58;3.80;99.90
51837;DHT22;38941;53.254;6.600;2024-02-28T06:59:59;3.50;99.90
51837;DHT22;38941;53.254;6.600;2024-02-28T07:02:00;4.60;99.90
51837;DHT22;38941;53.254;6.600;2024-02-28T07:04:00;3.30;99.90
51837;DHT22;38941;53.254;6.600;2024-02-28T07:06:01;3.60;99.90
51837;DHT22;38941;53.254;6.600;2024-02-28T07:08:02;3.60;99.90
51837;DHT22;38941;53.254;6.600;2024-02-28T07:10:04;3.60;99.90
51837;DHT22;38941;53.254;6.600;2024-02-28T07:12:12;3.00;99.90
51837;DHT22;38941;53.254;6.600;2024-02-28T07:14:14;3.60;99.90
51837;DHT22;38941;53.254;6.600;2024-02-28T07:16:15;3.60;99.90
51837;DHT22;38941;53.254;6.600;2024-02-28T07:18:16;4.10;99.90
51837;DHT22;38941;53.254;6.600;2024-02-28T07:20:17;3.60;99.90
51837;DHT22;38941;53.254;6.600;2024-02-28T07:22:18;4.30;99.90
51837;DHT22;38941;53.254;6.600;2024-02-28T07:24:20;4.40;99.90
51837;DHT22;38941;53.254;6.600;2024-02-28T07:26:21;4.30;99.90
51837;DHT22;38941;53.254;6.600;2024-02-28T07:28:21;4.40;99.90
51837;DHT22;38941;53.254;6.600;2024-02-28T07:30:22;4.30;99.90
51837;DHT22;38941;53.254;6.600;2024-02-28T07:32:23;3.80;99.90
51837;DHT22;38941;53.254;6.600;2024-02-28T07:34:25;4.70;99.90
51837;DHT22;38941;53.254;6.600;2024-02-28T07:36:25;4.30;99.90
51837;DHT22;38941;53.254;6.600;2024-02-28T07:38:27;3.90;99.90
51837;DHT22;38941;53.254;6.600;2024-02-28T07:40:29;4.70;99.90
51837;DHT22;38941;53.254;6.600;2024-02-28T07:42:31;3.90;99.90
51837;DHT22;38941;53.254;6.600;2024-02-28T07:44:31;3.90;99.90
51837;DHT22;38941;53.254;6.600;2024-02-28T07:46:32;4.90;99.90
51837;DHT22;38941;53.254;6.600;2024-02-28T07:48:33;4.10;99.90
51837;DHT22;38941;53.254;6.600;2024-02-28T07:50:34;5.00;99.90
51837;DHT22;38941;53.254;6.600;2024-02-28T07:52:35;5.00;99.90
51837;DHT22;38941;53.254;6.600;2024-02-28T07:54:37;4.00;99.90
51837;DHT22;38941;53.254;6.600;2024-02-28T07:56:38;3.60;99.90
51837;DHT22;38941;53.254;6.600;2024-02-28T07:58:39;4.50;99.90
51837;DHT22;38941;53.254;6.600;2024-02-28T08:00:41;4.20;99.90
51837;DHT22;38941;53.254;6.600;2024-02-28T08:02:42;5.30;99.90
51837;DHT22;38941;53.254;6.600;2024-02-28T08:04:42;5.00;99.90
51837;DHT22;38941;53.254;6.600;2024-02-28T08:06:44;5.00;99.90
51837;DHT22;38941;53.254;6.600;2024-02-28T08:08:45;4.70;99.90
51837;DHT22;38941;53.254;6.600;2024-02-28T08:10:49;4.40;99.90
51837;DHT22;38941;53.254;6.600;2024-02-28T08:12:52;5.50;99.90
51837;DHT22;38941;53.254;6.600;2024-02-28T08:14:53;5.10;99.90
51837;DHT22;38941;53.254;6.600;2024-02-28T08:16:53;4.40;99.90
51837;DHT22;38941;53.254;6.600;2024-02-28T08:18:54;4.50;99.90
51837;DHT22;38941;53.254;6.600;2024-02-28T08:20:55;4.50;99.90
51837;DHT22;38941;53.254;6.600;2024-02-28T08:22:57;5.10;99.90
51837;DHT22;38941;53.254;6.600;2024-02-28T08:25:00;5.10;99.90
51837;DHT22;38941;53.254;6.600;2024-02-28T08:27:00;4.60;99.90
51837;DHT22;38941;53.254;6.600;2024-02-28T08:29:01;4.70;99.90
51837;DHT22;38941;53.254;6.600;2024-02-28T08:31:02;4.70;99.90
51837;DHT22;38941;53.254;6.600;2024-02-28T08:33:06;4.80;99.90
51837;DHT22;38941;53.254;6.600;2024-02-28T08:35:08;4.80;99.90
51837;DHT22;38941;53.254;6.600;2024-02-28T08:37:15;5.20;99.90
51837;DHT22;38941;53.254;6.600;2024-02-28T08:39:16;4.90;99.90
51837;DHT22;38941;53.254;6.600;2024-02-28T08:41:17;4.90;99.90
51837;DHT22;38941;53.254;6.600;2024-02-28T08:43:19;4.90;99.90
51837;DHT22;38941;53.254;6.600;2024-02-28T08:45:20;4.90;99.90
51837;DHT22;38941;53.254;6.600;2024-02-28T08:47:24;4.90;99.90
51837;DHT22;38941;53.254;6.600;2024-02-28T08:49:25;5.00;99.90
51837;DHT22;38941;53.254;6.600;2024-02-28T08:51:27;5.00;99.90
51837;DHT22;38941;53.254;6.600;2024-02-28T08:53:27;5.10;99.90
51837;DHT22;38941;53.254;6.600;2024-02-28T08:55:28;5.10;99.90
51837;DHT22;38941;53.254;6.600;2024-02-28T08:57:29;5.20;99.90
51837;DHT22;38941;53.254;6.600;2024-02-28T08:59:30;5.30;99.90
51837;DHT22;38941;53.254;6.600;2024-02-28T09:01:31;5.40;99.90
51837;DHT22;38941;53.254;6.600;2024-02-28T09:03:36;5.40;99.90
51837;DHT22;38941;53.254;6.600;2024-02-28T09:05:38;5.50;99.90
51837;DHT22;38941;53.254;6.600;2024-02-28T09:07:39;5.60;99.90
51837;DHT22;38941;53.254;6.600;2024-02-28T09:09:42;5.60;99.90
51837;DHT22;38941;53.254;6.600;2024-02-28T09:11:44;5.70;99.90
51837;DHT22;38941;53.254;6.600;2024-02-28T09:13:44;6.10;99.90
51837;DHT22;38941;53.254;6.600;2024-02-28T09:15:46;5.70;99.90
51837;DHT22;38941;53.254;6.600;2024-02-28T09:17:47;5.70;99.90
51837;DHT22;38941;53.254;6.600;2024-02-28T09:19:48;5.70;99.90
51837;DHT22;38941;53.254;6.600;2024-02-28T09:21:48;5.70;99.90
51837;DHT22;38941;53.254;6.600;2024-02-28T09:23:49;5.70;99.90
51837;DHT22;38941;53.254;6.600;2024-02-28T09:25:51;5.70;99.90
51837;DHT22;38941;53.254;6.600;2024-02-28T09:27:52;6.30;99.90
51837;DHT22;38941;53.254;6.600;2024-02-28T09:29:52;5.80;99.90
51837;DHT22;38941;53.254;6.600;2024-02-28T09:31:54;5.80;99.90
51837;DHT22;38941;53.254;6.600;2024-02-28T09:33:55;6.10;99.90
51837;DHT22;38941;53.254;6.600;2024-02-28T09:36:02;5.80;99.90
51837;DHT22;38941;53.254;6.600;2024-02-28T09:38:03;5.80;99.90
51837;DHT22;38941;53.254;6.600;2024-02-28T09:40:04;5.80;99.90
51837;DHT22;38941;53.254;6.600;2024-02-28T09:42:06;5.80;99.90
51837;DHT22;38941;53.254;6.600;2024-02-28T09:44:10;5.80;99.90
51837;DHT22;38941;53.254;6.600;2024-02-28T09:46:11;5.40;99.90
51837;DHT22;38941;53.254;6.600;2024-02-28T09:48:14;5.80;99.90
51837;DHT22;38941;53.254;6.600;2024-02-28T09:50:16;5.80;99.90
51837;DHT22;38941;53.254;6.600;2024-02-28T09:52:17;5.80;99.90
51837;DHT22;38941;53.254;6.600;2024-02-28T09:54:19;5.90;99.90
51837;DHT22;38941;53.254;6.600;2024-02-28T09:56:21;5.90;99.90
51837;DHT22;38941;53.254;6.600;2024-02-28T09:58:25;6.00;99.90
51837;DHT22;38941;53.254;6.600;2024-02-28T10:00:29;6.00;99.90
51837;DHT22;38941;53.254;6.600;2024-02-28T10:02:31;5.40;99.90
51837;DHT22;38941;53.254;6.600;2024-02-28T10:04:36;6.40;99.90
51837;DHT22;38941;53.254;6.600;2024-02-28T10:06:37;6.10;99.90
51837;DHT22;38941;53.254;6.600;2024-02-28T10:08:38;6.10;99.90
51837;DHT22;38941;53.254;6.600;2024-02-28T10:10:44;6.20;99.90
51837;DHT22;38941;53.254;6.600;2024-02-28T10:12:45;6.20;99.90
51837;DHT22;38941;53.254;6.600;2024-02-28T10:14:48;6.40;99.90
51837;DHT22;38941;53.254;6.600;2024-02-28T10:16:50;6.30;99.90
51837;DHT22;38941;53.254;6.600;2024-02-28T10:18:52;6.40;99.90
51837;DHT22;38941;53.254;6.600;2024-02-28T10:20:53;6.40;99.90
51837;DHT22;38941;53.254;6.600;2024-02-28T10:22:54;6.50;99.90
51837;DHT22;38941;53.254;6.600;2024-02-28T10:24:58;5.70;99.90
51837;DHT22;38941;53.254;6.600;2024-02-28T10:27:02;6.50;99.90
51837;DHT22;38941;53.254;6.600;2024-02-28T10:29:03;6.60;99.90
51837;DHT22;38941;53.254;6.600;2024-02-28T10:31:07;6.60;99.90
51837;DHT22;38941;53.254;6.600;2024-02-28T10:33:15;6.60;99.90
51837;DHT22;38941;53.254;6.600;2024-02-28T10:35:17;6.70;99.90
51837;DHT22;38941;53.254;6.600;2024-02-28T10:37:20;6.70;99.90
51837;DHT22;38941;53.254;6.600;2024-02-28T10:39:23;6.70;99.90
51837;DHT22;38941;53.254;6.600;2024-02-28T10:41:28;6.70;99.90
51837;DHT22;38941;53.254;6.600;2024-02-28T10:43:29;6.80;99.90
51837;DHT22;38941;53.254;6.600;2024-02-28T10:45:35;6.80;99.90
51837;DHT22;38941;53.254;6.600;2024-02-28T10:47:38;6.80;99.90
51837;DHT22;38941;53.254;6.600;2024-02-28T10:51:46;6.80;99.90
51837;DHT22;38941;53.254;6.600;2024-02-28T10:53:49;6.90;99.90
51837;DHT22;38941;53.254;6.600;2024-02-28T10:55:56;6.90;99.90
51837;DHT22;38941;53.254;6.600;2024-02-28T10:58:08;6.90;99.90
51837;DHT22;38941;53.254;6.600;2024-02-28T11:00:11;6.50;99.90
51837;DHT22;38941;53.254;6.600;2024-02-28T11:02:12;6.90;99.90
51837;DHT22;38941;53.254;6.600;2024-02-28T11:04:16;7.00;99.90
51837;DHT22;38941;53.254;6.600;2024-02-28T11:06:18;7.00;99.90
51837;DHT22;38941;53.254;6.600;2024-02-28T11:08:21;6.90;99.90
51837;DHT22;38941;53.254;6.600;2024-02-28T11:10:23;7.00;99.90
51837;DHT22;38941;53.254;6.600;2024-02-28T11:12:29;6.90;99.90
51837;DHT22;38941;53.254;6.600;2024-02-28T11:14:29;6.90;99.90
51837;DHT22;38941;53.254;6.600;2024-02-28T11:16:32;6.90;99.90
51837;DHT22;38941;53.254;6.600;2024-02-28T11:18:33;6.90;99.90
51837;DHT22;38941;53.254;6.600;2024-02-28T11:20:34;7.00;99.90
51837;DHT22;38941;53.254;6.600;2024-02-28T11:22:35;7.00;99.90
51837;DHT22;38941;53.254;6.600;2024-02-28T11:24:37;7.00;99.90
51837;DHT22;38941;53.254;6.600;2024-02-28T11:26:38;6.90;99.90
51837;DHT22;38941;53.254;6.600;2024-02-28T11:28:39;6.90;99.90
51837;DHT22;38941;53.254;6.600;2024-02-28T11:30:40;6.90;99.90
51837;DHT22;38941;53.254;6.600;2024-02-28T11:32:42;7.00;99.90
51837;DHT22;38941;53.254;6.600;2024-02-28T11:34:43;7.00;99.90
51837;DHT22;38941;53.254;6.600;2024-02-28T11:36:49;7.00;99.90
51837;DHT22;38941;53.254;6.600;2024-02-28T11:38:50;7.10;99.90
51837;DHT22;38941;53.254;6.600;2024-02-28T11:40:52;7.20;99.90
51837;DHT22;38941;53.254;6.600;2024-02-28T11:42:54;7.30;99.90
51837;DHT22;38941;53.254;6.600;2024-02-28T11:44:55;7.50;99.90
51837;DHT22;38941;53.254;6.600;2024-02-28T11:46:58;7.60;99.90
51837;DHT22;38941;53.254;6.600;2024-02-28T11:49:00;7.80;99.90
51837;DHT22;38941;53.254;6.600;2024-02-28T11:51:01;8.00;99.90
51837;DHT22;38941;53.254;6.600;2024-02-28T11:53:02;8.20;99.90
51837;DHT22;38941;53.254;6.600;2024-02-28T11:55:05;8.40;99.90
51837;DHT22;38941;53.254;6.600;2024-02-28T11:57:07;8.60;99.90
51837;DHT22;38941;53.254;6.600;2024-02-28T11:59:08;8.60;99.90
51837;DHT22;38941;53.254;6.600;2024-02-28T12:01:12;8.80;99.90
51837;DHT22;38941;53.254;6.600;2024-02-28T12:03:13;8.80;99.90
51837;DHT22;38941;53.254;6.600;2024-02-28T12:05:13;8.80;99.90
51837;DHT22;38941;53.254;6.600;2024-02-28T12:07:14;8.70;99.90
51837;DHT22;38941;53.254;6.600;2024-02-28T12:09:15;8.70;99.90
51837;DHT22;38941;53.254;6.600;2024-02-28T12:11:19;8.70;99.90
51837;DHT22;38941;53.254;6.600;2024-02-28T12:13:22;8.60;99.90
51837;DHT22;38941;53.254;6.600;2024-02-28T12:15:23;8.40;99.90
51837;DHT22;38941;53.254;6.600;2024-02-28T12:17:25;8.30;99.90
51837;DHT22;38941;53.254;6.600;2024-02-28T12:19:26;8.30;99.90
51837;DHT22;38941;53.254;6.600;2024-02-28T12:21:30;8.10;99.90
51837;DHT22;38941;53.254;6.600;2024-02-28T12:23:31;8.10;99.90
51837;DHT22;38941;53.254;6.600;2024-02-28T12:25:32;8.00;99.90
51837;DHT22;38941;53.254;6.600;2024-02-28T12:27:34;8.00;99.90
51837;DHT22;38941;53.254;6.600;2024-02-28T12:29:35;8.00;99.90
51837;DHT22;38941;53.254;6.600;2024-02-28T12:31:35;8.00;99.90
51837;DHT22;38941;53.254;6.600;2024-02-28T12:33:37;8.00;99.90
51837;DHT22;38941;53.254;6.600;2024-02-28T12:35:38;7.90;99.90
51837;DHT22;38941;53.254;6.600;2024-02-28T12:37:39;7.80;99.90
51837;DHT22;38941;53.254;6.600;2024-02-28T12:39:40;7.80;99.90
51837;DHT22;38941;53.254;6.600;2024-02-28T12:41:41;7.70;99.90
51837;DHT22;38941;53.254;6.600;2024-02-28T12:43:41;7.70;99.90
51837;DHT22;38941;53.254;6.600;2024-02-28T12:45:42;7.70;99.90
51837;DHT22;38941;53.254;6.600;2024-02-28T12:47:43;7.60;99.90
51837;DHT22;38941;53.254;6.600;2024-02-28T12:49:44;7.70;99.90
51837;DHT22;38941;53.254;6.600;2024-02-28T12:51:45;7.70;99.90
51837;DHT22;38941;53.254;6.600;2024-02-28T12:53:46;7.70;99.90
51837;DHT22;38941;53.254;6.600;2024-02-28T12:55:49;7.70;99.90
51837;DHT22;38941;53.254;6.600;2024-02-28T12:57:50;7.70;99.90
51837;DHT22;38941;53.254;6.600;2024-02-28T12:59:51;7.70;99.90
51837;DHT22;38941;53.254;6.600;2024-02-28T13:01:51;7.70;99.90
51837;DHT22;38941;53.254;6.600;2024-02-28T13:03:52;7.70;99.90
51837;DHT22;38941;53.254;6.600;2024-02-28T13:05:54;7.70;99.90
51837;DHT22;38941;53.254;6.600;2024-02-28T13:07:55;7.70;99.90